Time;durP1;ratioP1;P1;durP2;ratioP2;P2;SDS_P1;SDS_P2;PMS_P1;PMS_P2;Temp;Humidity;BMP_temperature;BMP_pressure;BME280_temperature;BME280_humidity;BME280_pressure;Samples;Min_cycle;Max_cycle;Signal;HPM_P1;HPM_P2
2023/03/29 00:00:44;;;;;;;1.23;0.85;;;21.70;31.10;;;;;;4985865;28;20030;-50
2023/03/29 00:03:12;;;;;;;1.92;1.00;;;21.70;31.20;;;;;;4988582;28;20030;-49
2023/03/29 00:05:39;;;;;;;1.35;0.88;;;21.70;31.20;;;;;;4985788;28;20034;-55
2023/03/29 00:08:06;;;;;;;1.35;0.90;;;21.60;31.10;;;;;;4985671;28;20092;-54
2023/03/29 00:10:33;;;;;;;2.35;1.13;;;21.60;31.20;;;;;;4987796;28;20439;-46
2023/03/29 00:13:00;;;;;;;1.25;0.82;;;21.60;31.20;;;;;;4987705;28;20079;-52
2023/03/29 00:15:26;;;;;;;2.05;1.20;;;21.60;31.20;;;;;;4986814;28;20109;-54
2023/03/29 00:17:52;;;;;;;1.20;0.70;;;21.60;31.20;;;;;;4986825;28;20038;-53
2023/03/29 00:20:18;;;;;;;2.15;1.15;;;21.60;31.40;;;;;;4987368;28;20033;-49
2023/03/29 00:22:48;;;;;;;2.10;1.00;;;21.60;31.40;;;;;;4987379;28;20474;-55
2023/03/29 00:25:13;;;;;;;1.75;0.90;;;21.60;31.50;;;;;;4986110;28;20045;-53
2023/03/29 00:27:40;;;;;;;1.83;0.90;;;21.60;31.50;;;;;;4988105;28;20106;-53
2023/03/29 00:30:08;;;;;;;1.45;1.00;;;21.50;31.40;;;;;;4988329;28;20030;-50
2023/03/29 00:32:35;;;;;;;1.70;0.82;;;21.50;31.40;;;;;;4986369;28;20041;-50
2023/03/29 00:35:03;;;;;;;1.80;0.88;;;21.50;31.50;;;;;;4989202;28;20497;-51
2023/03/29 00:37:29;;;;;;;1.75;0.80;;;21.60;31.50;;;;;;4992514;28;20054;-50
2023/03/29 00:39:56;;;;;;;3.20;0.90;;;21.50;31.50;;;;;;4992272;28;20022;-53
2023/03/29 00:42:23;;;;;;;2.50;1.10;;;21.50;31.50;;;;;;4991626;28;20019;-52
2023/03/29 00:44:55;;;;;;;2.72;0.80;;;21.50;31.50;;;;;;4991872;28;20033;-52
2023/03/29 00:47:37;;;;;;;2.17;1.10;;;21.50;31.50;;;;;;4992706;28;20327;-51
2023/03/29 00:50:28;;;;;;;2.15;1.10;;;21.50;31.50;;;;;;4991196;28;20038;-52
2023/03/29 00:53:03;;;;;;;1.10;0.80;;;21.50;31.60;;;;;;4980775;28;20026;-52
2023/03/29 00:55:37;;;;;;;1.55;0.70;;;21.50;31.60;;;;;;4992126;28;20042;-55
2023/03/29 00:58:07;;;;;;;0.98;0.80;;;21.50;31.60;;;;;;4989507;28;20038;-51
2023/03/29 01:00:41;;;;;;;1.17;0.70;;;21.50;31.60;;;;;;4989027;28;20034;-53
2023/03/29 01:03:12;;;;;;;2.03;0.93;;;21.40;31.60;;;;;;4990911;28;20034;-53
2023/03/29 01:05:44;;;;;;;1.67;0.98;;;21.40;31.60;;;;;;4990979;28;20046;-51
2023/03/29 01:08:24;;;;;;;2.08;0.77;;;21.40;31.60;;;;;;4989655;28;20026;-52
2023/03/29 01:10:59;;;;;;;2.20;0.90;;;21.40;31.60;;;;;;4989920;28;20328;-51
2023/03/29 01:13:33;;;;;;;1.27;0.70;;;21.40;31.60;;;;;;4989705;28;20050;-51
2023/03/29 01:16:01;;;;;;;1.30;0.80;;;21.40;31.70;;;;;;4984110;28;20026;-56
2023/03/29 01:18:30;;;;;;;1.27;0.60;;;21.40;31.70;;;;;;4989761;28;20442;-51
2023/03/29 01:21:14;;;;;;;1.48;0.68;;;21.40;31.70;;;;;;5007151;28;20026;-52
2023/03/29 01:23:57;;;;;;;1.45;0.70;;;21.40;31.70;;;;;;4989034;28;20034;-52
2023/03/29 01:26:33;;;;;;;2.10;0.90;;;21.30;31.70;;;;;;4990370;28;20026;-47
2023/03/29 01:29:06;;;;;;;1.90;0.90;;;21.30;31.70;;;;;;4989968;28;20034;-52
2023/03/29 01:31:44;;;;;;;2.15;0.73;;;21.40;31.80;;;;;;4988527;28;20018;-47
2023/03/29 01:34:26;;;;;;;1.45;0.82;;;21.40;31.80;;;;;;4986847;28;20022;-48
2023/03/29 01:37:03;;;;;;;2.13;0.70;;;21.30;31.70;;;;;;4989519;28;20031;-49
2023/03/29 01:39:30;;;;;;;1.52;0.70;;;21.30;31.80;;;;;;4990622;28;20369;-57
2023/03/29 01:42:09;;;;;;;1.92;0.80;;;21.30;31.80;;;;;;4988306;28;20018;-49
2023/03/29 01:44:47;;;;;;;1.25;0.68;;;21.30;31.80;;;;;;4990265;28;20080;-49
2023/03/29 01:47:23;;;;;;;2.15;0.80;;;21.30;31.90;;;;;;4988100;28;20045;-52
2023/03/29 01:49:49;;;;;;;1.58;0.80;;;21.30;31.80;;;;;;4989341;28;20037;-52
2023/03/29 01:52:25;;;;;;;2.28;1.00;;;21.30;31.80;;;;;;4987686;28;20034;-52
2023/03/29 01:55:09;;;;;;;1.42;0.90;;;21.30;31.80;;;;;;4990117;28;20108;-51
2023/03/29 01:57:40;;;;;;;1.95;0.80;;;21.30;31.80;;;;;;4990652;28;20038;-50
2023/03/29 02:00:11;;;;;;;1.73;0.82;;;21.30;31.80;;;;;;4988667;28;20045;-50
2023/03/29 02:02:40;;;;;;;0.98;0.70;;;21.30;31.80;;;;;;4991720;28;20117;-49
2023/03/29 02:05:08;;;;;;;0.95;0.43;;;21.20;31.80;;;;;;4988570;28;20109;-54
2023/03/29 02:07:37;;;;;;;1.25;0.73;;;21.20;31.70;;;;;;4989859;28;20038;-52
2023/03/29 02:10:06;;;;;;;1.45;0.60;;;21.20;31.70;;;;;;4989754;28;20045;-53
2023/03/29 02:12:32;;;;;;;1.42;0.77;;;21.20;31.70;;;;;;4990441;28;20030;-53
2023/03/29 02:15:00;;;;;;;1.75;0.90;;;21.20;31.70;;;;;;4987460;28;20031;-51
2023/03/29 02:17:27;;;;;;;1.25;0.70;;;21.20;31.70;;;;;;4989509;28;20485;-48
2023/03/29 02:20:13;;;;;;;1.60;0.70;;;21.20;31.70;;;;;;4988749;28;20033;-50
2023/03/29 02:23:05;;;;;;;1.02;0.80;;;21.20;31.70;;;;;;4989918;28;20041;-52
2023/03/29 02:25:31;;;;;;;1.52;0.70;;;21.20;31.70;;;;;;4988752;28;20056;-50
2023/03/29 02:27:58;;;;;;;1.33;0.85;;;21.20;31.70;;;;;;4988781;28;20096;-51
2023/03/29 02:30:30;;;;;;;2.63;0.73;;;21.20;31.70;;;;;;4988122;28;22395;-50
2023/03/29 02:33:50;;;;;;;1.55;0.70;;;21.20;31.80;;;;;;4987427;28;20033;-49
2023/03/29 02:36:22;;;;;;;0.80;0.70;;;21.20;31.80;;;;;;4945611;28;20053;-49
2023/03/29 02:38:51;;;;;;;1.42;0.70;;;21.10;31.80;;;;;;4989245;28;20053;-53
2023/03/29 02:41:18;;;;;;;1.10;0.55;;;21.20;31.80;;;;;;4989376;28;20109;-51
2023/03/29 02:43:47;;;;;;;1.27;0.68;;;21.10;31.80;;;;;;4987116;28;20027;-47
2023/03/29 02:46:14;;;;;;;1.60;0.80;;;21.10;31.90;;;;;;4989795;28;20067;-50
2023/03/29 02:48:40;;;;;;;1.85;0.85;;;21.10;32.00;;;;;;4989306;28;20030;-52
2023/03/29 02:51:18;;;;;;;1.13;0.60;;;21.10;32.00;;;;;;4992250;28;20068;-51
2023/03/29 02:53:50;;;;;;;1.88;0.70;;;21.10;32.10;;;;;;4987516;28;20450;-51
2023/03/29 02:56:19;;;;;;;2.65;1.05;;;21.10;32.10;;;;;;4994117;28;20126;-50
2023/03/29 02:58:45;;;;;;;1.45;0.73;;;21.10;32.20;;;;;;4988090;28;20053;-53
2023/03/29 03:01:11;;;;;;;1.13;0.63;;;21.10;32.20;;;;;;4992109;28;20030;-49
2023/03/29 03:03:37;;;;;;;1.52;0.60;;;21.00;32.20;;;;;;4986920;28;20041;-52
2023/03/29 03:06:04;;;;;;;0.65;0.60;;;21.10;32.30;;;;;;4988838;28;20030;-50
2023/03/29 03:08:31;;;;;;;1.98;0.80;;;21.10;32.40;;;;;;4988406;28;20022;-53
2023/03/29 03:10:58;;;;;;;1.85;0.60;;;21.10;32.50;;;;;;4984325;28;20032;-52
2023/03/29 03:13:24;;;;;;;0.73;0.60;;;21.10;32.60;;;;;;4988812;28;20112;-53
2023/03/29 03:15:50;;;;;;;0.80;0.55;;;21.00;32.60;;;;;;4988642;28;20038;-54
2023/03/29 03:18:17;;;;;;;1.48;0.50;;;21.00;32.70;;;;;;4986293;28;20474;-51
2023/03/29 03:20:45;;;;;;;1.27;0.60;;;21.00;32.80;;;;;;4987248;28;20048;-49
2023/03/29 03:23:11;;;;;;;1.17;0.73;;;21.00;32.80;;;;;;4988120;28;20354;-51
2023/03/29 03:25:37;;;;;;;1.20;0.65;;;21.00;32.90;;;;;;4988130;28;20037;-48
2023/03/29 03:28:03;;;;;;;1.58;0.80;;;21.00;33.00;;;;;;4988673;28;20036;-49
2023/03/29 03:30:32;;;;;;;1.25;0.68;;;21.00;33.10;;;;;;4987592;28;20058;-54
2023/03/29 03:33:18;;;;;;;1.70;0.73;;;21.00;33.20;;;;;;4987718;28;20056;-47
2023/03/29 03:36:05;;;;;;;0.80;0.60;;;21.00;33.20;;;;;;4989124;28;20453;-51
2023/03/29 03:38:32;;;;;;;1.30;0.82;;;21.00;33.30;;;;;;4984105;28;20143;-52
2023/03/29 03:41:00;;;;;;;1.35;0.73;;;21.00;33.40;;;;;;4987488;28;20026;-50
2023/03/29 03:43:28;;;;;;;1.60;0.50;;;21.00;33.40;;;;;;4986986;28;20062;-50
2023/03/29 03:45:55;;;;;;;1.38;0.60;;;21.00;33.50;;;;;;4987520;28;20019;-50
2023/03/29 03:48:24;;;;;;;1.45;0.90;;;20.90;33.50;;;;;;4987157;28;20037;-54
2023/03/29 03:51:15;;;;;;;1.23;0.73;;;21.00;33.60;;;;;;4986007;28;20398;-51
2023/03/29 03:53:41;;;;;;;0.70;0.50;;;20.90;33.60;;;;;;4988055;28;20347;-49
2023/03/29 03:56:13;;;;;;;1.13;0.65;;;20.90;33.60;;;;;;4986149;28;20188;-52
2023/03/29 03:59:10;;;;;;;1.10;0.80;;;20.90;33.70;;;;;;4987260;28;20576;-52
2023/03/29 04:01:45;;;;;;;1.30;0.57;;;20.90;33.80;;;;;;4972305;28;20022;-52
2023/03/29 04:04:18;;;;;;;0.70;0.60;;;20.90;33.80;;;;;;4979611;28;20037;-50
2023/03/29 04:07:20;;;;;;;1.40;0.80;;;20.90;33.80;;;;;;4966588;28;20053;-49
2023/03/29 04:10:10;;;;;;;1.73;0.60;;;20.90;33.90;;;;;;4983224;28;20062;-51
2023/03/29 04:13:01;;;;;;;2.42;0.80;;;20.90;33.90;;;;;;4978599;28;20082;-47
2023/03/29 04:15:28;;;;;;;2.38;0.68;;;20.90;33.90;;;;;;4990462;28;20034;-54
2023/03/29 04:18:03;;;;;;;1.65;0.70;;;20.90;33.90;;;;;;4991037;28;20034;-52
2023/03/29 04:20:32;;;;;;;1.13;0.68;;;20.80;33.90;;;;;;4989378;28;20465;-51
2023/03/29 04:22:59;;;;;;;2.28;0.80;;;20.80;33.90;;;;;;4990566;28;20516;-50
2023/03/29 04:25:27;;;;;;;1.23;0.70;;;20.80;34.00;;;;;;4991504;28;20050;-51
2023/03/29 04:28:12;;;;;;;1.67;0.90;;;20.80;34.00;;;;;;4992244;28;20184;-54
2023/03/29 04:30:49;;;;;;;1.55;0.40;;;20.80;34.00;;;;;;4978331;28;20113;-49
2023/03/29 04:33:47;;;;;;;2.10;0.80;;;20.80;34.00;;;;;;4971886;28;20053;-53
2023/03/29 04:36:15;;;;;;;0.98;0.50;;;20.80;34.10;;;;;;4963684;28;20039;-49
2023/03/29 04:38:41;;;;;;;1.20;0.57;;;20.80;34.10;;;;;;4990551;28;20038;-51
2023/03/29 04:41:08;;;;;;;2.20;0.60;;;20.80;34.10;;;;;;4992371;28;20094;-50
2023/03/29 04:43:52;;;;;;;0.85;0.55;;;20.80;34.10;;;;;;4989601;28;20030;-48
2023/03/29 04:46:26;;;;;;;1.15;0.50;;;20.80;34.20;;;;;;4990779;28;20045;-54
2023/03/29 04:49:10;;;;;;;1.30;0.80;;;20.80;34.20;;;;;;4989895;28;20049;-50
2023/03/29 04:51:42;;;;;;;1.05;0.73;;;20.80;34.20;;;;;;4988893;28;20045;-51
2023/03/29 04:54:09;;;;;;;1.27;0.75;;;20.80;34.20;;;;;;4991373;28;20014;-54
2023/03/29 04:56:55;;;;;;;1.00;0.60;;;20.80;34.20;;;;;;4992014;28;20073;-52
2023/03/29 04:59:36;;;;;;;1.73;0.77;;;20.70;34.20;;;;;;4977186;28;20113;-51
2023/03/29 05:02:10;;;;;;;1.15;0.70;;;20.70;34.30;;;;;;4974998;28;20118;-48
2023/03/29 05:04:39;;;;;;;2.22;0.77;;;20.70;34.20;;;;;;4988457;28;20049;-53
2023/03/29 05:07:14;;;;;;;1.60;0.70;;;20.70;34.20;;;;;;4993424;28;20022;-47
2023/03/29 05:09:41;;;;;;;1.92;0.70;;;20.70;34.20;;;;;;4989598;28;20512;-52
2023/03/29 05:12:08;;;;;;;1.65;0.80;;;20.70;34.20;;;;;;4989636;28;20030;-54
2023/03/29 05:14:46;;;;;;;1.33;0.80;;;20.70;34.30;;;;;;4989821;28;20050;-51
2023/03/29 05:17:13;;;;;;;1.38;0.70;;;20.70;34.30;;;;;;4988919;28;20050;-51
2023/03/29 05:19:39;;;;;;;1.00;0.63;;;20.70;34.30;;;;;;4992976;28;20457;-52
2023/03/29 05:22:07;;;;;;;0.70;0.57;;;20.70;34.30;;;;;;4988983;28;20022;-47
2023/03/29 05:24:34;;;;;;;1.90;0.77;;;20.70;34.30;;;;;;4978336;28;21713;-52
2023/03/29 05:27:06;;;;;;;1.05;0.60;;;20.70;34.40;;;;;;4978153;28;20031;-50
2023/03/29 05:29:35;;;;;;;1.63;0.80;;;20.70;34.30;;;;;;4990239;28;20085;-52
2023/03/29 05:32:36;;;;;;;1.83;0.80;;;20.70;34.30;;;;;;4968969;28;20057;-54
2023/03/29 05:35:02;;;;;;;1.05;0.60;;;20.70;34.30;;;;;;4990482;28;20068;-54
2023/03/29 05:37:32;;;;;;;1.50;0.77;;;20.70;34.30;;;;;;4989029;28;20362;-51
2023/03/29 05:39:59;;;;;;;2.67;0.80;;;20.70;34.30;;;;;;4990487;28;20030;-47
2023/03/29 05:42:30;;;;;;;1.42;0.85;;;20.70;34.40;;;;;;4989388;28;20041;-52
2023/03/29 05:45:05;;;;;;;2.08;1.00;;;20.70;34.40;;;;;;4989574;28;20028;-54
2023/03/29 05:47:32;;;;;;;1.10;0.88;;;20.70;34.40;;;;;;4989828;28;20062;-51
2023/03/29 05:49:58;;;;;;;0.90;0.60;;;20.70;34.40;;;;;;4986513;28;20026;-55
2023/03/29 05:52:24;;;;;;;2.10;0.80;;;20.60;34.30;;;;;;4990154;28;20038;-54
2023/03/29 05:54:50;;;;;;;1.25;0.70;;;20.70;34.40;;;;;;4988386;28;20362;-48
2023/03/29 05:57:16;;;;;;;2.10;0.82;;;20.70;34.40;;;;;;4990286;28;20044;-51
2023/03/29 05:59:42;;;;;;;1.30;0.82;;;20.60;34.40;;;;;;4988334;28;20030;-49
2023/03/29 06:02:11;;;;;;;1.63;0.73;;;20.60;34.40;;;;;;4988746;28;20027;-51
2023/03/29 06:04:42;;;;;;;1.80;1.00;;;20.60;34.40;;;;;;4989365;28;20033;-55
2023/03/29 06:07:28;;;;;;;1.75;0.88;;;20.60;34.40;;;;;;4976693;28;20045;-54
2023/03/29 06:10:14;;;;;;;1.73;0.70;;;20.60;34.40;;;;;;4986668;28;20359;-52
2023/03/29 06:12:48;;;;;;;2.58;0.80;;;20.60;34.40;;;;;;4989551;28;20180;-54
2023/03/29 06:15:15;;;;;;;1.45;0.73;;;20.60;34.40;;;;;;4988442;28;20033;-53
2023/03/29 06:17:56;;;;;;;2.35;0.88;;;20.60;34.40;;;;;;4974432;28;20049;-51
2023/03/29 06:20:22;;;;;;;2.08;0.90;;;20.60;34.40;;;;;;4987934;28;20022;-51
2023/03/29 06:22:54;;;;;;;2.08;0.70;;;20.60;34.50;;;;;;4973553;28;20034;-52
2023/03/29 06:25:23;;;;;;;2.42;0.70;;;20.60;34.50;;;;;;4985245;28;20027;-50
2023/03/29 06:27:51;;;;;;;1.60;0.85;;;20.60;34.50;;;;;;4988012;28;20034;-53
2023/03/29 06:30:19;;;;;;;1.52;0.88;;;20.60;34.60;;;;;;4989149;28;20413;-54
2023/03/29 06:32:49;;;;;;;1.80;0.93;;;20.60;34.50;;;;;;4988222;28;20034;-50
2023/03/29 06:35:39;;;;;;;0.85;0.60;;;20.60;34.50;;;;;;4990936;28;20489;-52
2023/03/29 06:38:08;;;;;;;;;;;20.60;34.50;;;;;;4987558;28;20369;-50
2023/03/29 06:41:06;;;;;;;2.67;1.00;;;20.60;34.50;;;;;;4989221;28;19913;-51
2023/03/29 06:43:49;;;;;;;;;;;20.60;34.50;;;;;;4981315;28;21495;-55
2023/03/29 06:46:15;;;;;;;1.80;0.80;;;20.60;34.50;;;;;;4987213;28;19967;-52
2023/03/29 06:48:54;;;;;;;2.58;1.20;;;20.60;34.50;;;;;;4986848;28;20475;-49
2023/03/29 06:51:26;;;;;;;3.47;1.45;;;20.50;34.50;;;;;;4982857;28;20092;-50
2023/03/29 06:53:52;;;;;;;3.83;1.40;;;20.60;34.60;;;;;;4987247;28;20545;-52
2023/03/29 06:56:18;;;;;;;5.32;1.98;;;20.60;34.60;;;;;;4988461;28;20458;-55
2023/03/29 06:58:47;;;;;;;8.70;2.70;;;20.60;34.70;;;;;;4978321;28;20034;-50
2023/03/29 07:01:46;;;;;;;5.90;2.70;;;20.60;34.70;;;;;;4942123;28;20104;-52
2023/03/29 07:04:23;;;;;;;7.57;3.60;;;20.60;34.80;;;;;;4992464;28;20026;-53
2023/03/29 07:07:18;;;;;;;14.38;4.93;;;20.60;34.90;;;;;;4988204;28;20592;-52
2023/03/29 07:09:52;;;;;;;11.35;5.28;;;20.70;35.20;;;;;;4987546;28;20033;-50
2023/03/29 07:12:30;;;;;;;16.08;5.93;;;20.70;35.30;;;;;;4988901;28;20034;-56
2023/03/29 07:14:59;;;;;;;12.98;6.10;;;20.70;35.40;;;;;;4984588;28;20066;-48
2023/03/29 07:17:44;;;;;;;13.85;6.47;;;20.80;35.50;;;;;;4987708;28;20126;-50
2023/03/29 07:20:14;;;;;;;15.38;7.15;;;20.80;35.60;;;;;;4987927;28;20117;-54
2023/03/29 07:22:49;;;;;;;14.30;7.35;;;20.80;35.60;;;;;;4987396;28;20046;-53
2023/03/29 07:25:17;;;;;;;14.93;7.85;;;20.90;35.70;;;;;;4991788;28;20034;-53
2023/03/29 07:27:45;;;;;;;16.42;8.00;;;20.80;35.70;;;;;;4988462;28;20046;-53
2023/03/29 07:30:15;;;;;;;13.73;8.00;;;20.90;35.90;;;;;;4988270;28;20023;-54
2023/03/29 07:32:43;;;;;;;15.75;8.65;;;20.90;36.50;;;;;;4985712;28;20984;-51
2023/03/29 07:35:22;;;;;;;15.00;9.13;;;20.90;35.80;;;;;;4987123;28;20026;-55
2023/03/29 07:37:48;;;;;;;14.82;9.23;;;21.00;35.80;;;;;;4988084;28;20052;-52
2023/03/29 07:40:17;;;;;;;14.13;8.88;;;21.00;35.80;;;;;;4988242;28;20031;-52
2023/03/29 07:43:07;;;;;;;14.80;9.43;;;21.00;35.70;;;;;;4991542;28;20477;-50
2023/03/29 07:45:35;;;;;;;15.57;9.63;;;21.10;35.70;;;;;;4985124;28;20026;-53
2023/03/29 07:48:08;;;;;;;13.65;9.18;;;21.10;35.70;;;;;;4987971;28;20030;-50
2023/03/29 07:50:48;;;;;;;14.50;9.65;;;21.20;35.80;;;;;;4986628;28;20022;-49
2023/03/29 07:53:16;;;;;;;13.07;8.88;;;21.20;35.80;;;;;;4985287;28;20105;-50
2023/03/29 07:55:48;;;;;;;12.88;9.40;;;21.20;35.70;;;;;;4988035;28;20026;-54
2023/03/29 07:58:34;;;;;;;11.95;8.30;;;21.20;35.70;;;;;;4987995;28;20054;-49
2023/03/29 08:01:00;;;;;;;11.98;9.05;;;21.30;35.70;;;;;;4988893;28;20457;-50
2023/03/29 08:03:46;;;;;;;13.75;9.73;;;21.30;35.60;;;;;;4989271;28;20037;-50
2023/03/29 08:06:11;;;;;;;13.27;8.75;;;21.30;35.60;;;;;;4988245;28;20031;-49
2023/03/29 08:08:37;;;;;;;14.27;9.23;;;21.30;35.50;;;;;;4990687;28;20054;-52
2023/03/29 08:11:10;;;;;;;13.20;9.05;;;21.40;35.50;;;;;;4989846;28;20513;-50
2023/03/29 08:13:57;;;;;;;11.05;8.25;;;21.40;35.40;;;;;;4991241;28;20061;-51
2023/03/29 08:16:51;;;;;;;11.43;7.80;;;21.50;35.30;;;;;;4991910;28;20037;-50
2023/03/29 08:19:17;;;;;;;8.75;6.47;;;21.50;35.20;;;;;;4986878;28;20049;-51
2023/03/29 08:22:01;;;;;;;9.48;6.43;;;21.50;35.10;;;;;;4990618;28;20438;-54
2023/03/29 08:24:35;;;;;;;;;;;21.50;35.00;;;;;;4992541;28;20058;-51
2023/03/29 08:27:05;;;;;;;10.07;6.30;;;21.50;34.90;;;;;;4992259;28;20401;-50
2023/03/29 08:29:31;;;;;;;8.95;5.78;;;21.50;34.90;;;;;;4992128;28;20177;-53
2023/03/29 08:31:58;;;;;;;9.05;6.43;;;21.50;34.80;;;;;;4989367;28;20481;-49
2023/03/29 08:34:24;;;;;;;7.32;5.28;;;21.60;34.80;;;;;;4991669;28;20041;-53
2023/03/29 08:37:05;;;;;;;7.72;5.80;;;21.60;34.80;;;;;;4991290;28;20107;-49
2023/03/29 08:39:37;;;;;;;8.10;5.75;;;21.60;34.70;;;;;;4992253;28;20076;-52
2023/03/29 08:42:57;;;;;;;11.32;6.28;;;21.60;34.70;;;;;;4991624;28;20052;-51
2023/03/29 08:45:58;;;;;;;10.45;6.97;;;21.60;34.60;;;;;;4991459;28;20123;-53
2023/03/29 08:48:36;;;;;;;8.05;6.45;;;21.60;34.60;;;;;;4992268;28;20061;-54
2023/03/29 08:51:35;;;;;;;9.80;6.72;;;21.60;34.70;;;;;;4980100;28;20042;-51
2023/03/29 08:54:04;;;;;;;8.65;6.72;;;21.60;34.70;;;;;;4988472;28;20034;-53
2023/03/29 08:57:31;;;;;;;8.13;6.85;;;21.60;34.70;;;;;;4956830;28;20370;-51
2023/03/29 09:00:05;;;;;;;8.85;7.35;;;21.60;34.70;;;;;;4993608;28;20088;-53
2023/03/29 09:02:34;;;;;;;9.93;7.03;;;21.60;34.70;;;;;;4995746;28;20113;-53
2023/03/29 09:05:07;;;;;;;9.35;6.90;;;21.60;34.80;;;;;;4994047;28;20088;-53
2023/03/29 09:07:42;;;;;;;9.70;7.75;;;21.60;34.80;;;;;;4982548;28;20037;-51
2023/03/29 09:10:25;;;;;;;11.48;7.95;;;21.60;34.90;;;;;;4995277;28;20022;-52
2023/03/29 09:13:32;;;;;;;12.88;8.23;;;21.60;34.90;;;;;;4991826;28;20418;-51
2023/03/29 09:16:08;;;;;;;11.27;8.52;;;21.60;34.90;;;;;;4982502;28;20038;-57
2023/03/29 09:18:57;;;;;;;11.27;8.23;;;21.60;35.00;;;;;;5008711;28;20031;-51
2023/03/29 09:21:35;;;;;;;11.55;8.95;;;21.60;35.20;;;;;;4994497;28;20038;-52
2023/03/29 09:24:31;;;;;;;10.57;8.10;;;21.60;35.30;;;;;;4991359;28;20046;-52
2023/03/29 09:27:06;;;;;;;10.18;8.05;;;21.60;35.40;;;;;;4993588;28;20033;-57
2023/03/29 09:29:50;;;;;;;9.70;7.72;;;21.60;35.50;;;;;;4996498;28;20101;-53
2023/03/29 09:32:30;;;;;;;10.35;7.45;;;21.60;35.50;;;;;;4992223;28;20026;-58
2023/03/29 09:35:23;;;;;;;10.52;7.88;;;21.60;35.50;;;;;;5007754;28;20050;-58
2023/03/29 09:37:52;;;;;;;9.65;6.93;;;21.60;35.60;;;;;;4994361;28;20038;-59
2023/03/29 09:40:38;;;;;;;8.55;6.72;;;21.60;35.60;;;;;;4994630;28;20042;-57
2023/03/29 09:43:17;;;;;;;11.05;7.82;;;21.60;35.70;;;;;;4993498;28;20034;-57
2023/03/29 09:45:49;;;;;;;8.95;7.60;;;21.60;35.80;;;;;;4994479;28;20090;-53
2023/03/29 09:48:18;;;;;;;9.35;7.72;;;21.60;35.90;;;;;;4993630;28;20030;-57
2023/03/29 09:50:53;;;;;;;10.57;8.30;;;21.60;36.00;;;;;;4991327;28;20060;-55
2023/03/29 09:53:20;;;;;;;10.73;7.97;;;21.60;36.10;;;;;;4994393;28;20053;-56
2023/03/29 09:55:56;;;;;;;11.13;8.68;;;21.60;36.10;;;;;;4992675;28;20034;-55
2023/03/29 09:58:45;;;;;;;12.63;9.25;;;21.60;36.20;;;;;;4993828;28;20046;-57
2023/03/29 10:01:16;;;;;;;13.07;8.88;;;21.60;36.20;;;;;;4992069;28;20101;-58
2023/03/29 10:03:55;;;;;;;10.18;8.85;;;21.60;36.30;;;;;;4994559;28;20026;-55
2023/03/29 10:06:24;;;;;;;13.27;9.38;;;21.60;36.40;;;;;;4981189;28;20038;-57
2023/03/29 10:08:58;;;;;;;11.90;9.65;;;21.60;36.40;;;;;;4991347;28;20014;-57
2023/03/29 10:11:34;;;;;;;11.02;9.05;;;21.60;36.50;;;;;;4978915;28;20034;-56
2023/03/29 10:14:03;;;;;;;11.00;8.77;;;21.60;36.50;;;;;;4994684;28;20398;-57
2023/03/29 10:16:40;;;;;;;11.93;9.45;;;21.70;36.60;;;;;;4995424;28;20121;-54
2023/03/29 10:19:28;;;;;;;11.23;9.07;;;21.60;36.60;;;;;;4993908;28;20042;-57
2023/03/29 10:21:58;;;;;;;12.25;9.65;;;21.70;36.70;;;;;;4995034;28;20022;-57
2023/03/29 10:24:26;;;;;;;10.77;9.68;;;21.70;36.70;;;;;;4995028;28;20030;-55
2023/03/29 10:27:06;;;;;;;11.38;9.65;;;21.70;36.80;;;;;;4994150;28;20026;-56
2023/03/29 10:29:39;;;;;;;12.05;10.25;;;21.70;36.80;;;;;;4992918;28;20023;-55
2023/03/29 10:32:33;;;;;;;12.77;9.38;;;21.70;36.80;;;;;;4993945;28;20045;-59
2023/03/29 10:35:09;;;;;;;12.75;9.88;;;21.70;36.90;;;;;;4987774;28;20465;-57
2023/03/29 10:37:43;;;;;;;12.57;10.23;;;21.70;37.00;;;;;;4992827;28;20092;-57
2023/03/29 10:40:24;;;;;;;12.50;10.00;;;21.70;37.00;;;;;;4994366;28;20029;-58
2023/03/29 10:42:52;;;;;;;13.38;10.88;;;21.70;37.10;;;;;;4992005;28;20022;-57
2023/03/29 10:45:32;;;;;;;14.00;11.68;;;21.70;37.10;;;;;;4995138;28;20034;-57
2023/03/29 10:47:58;;;;;;;13.75;11.35;;;21.70;37.20;;;;;;4995473;28;20501;-58
2023/03/29 10:50:36;;;;;;;13.73;11.85;;;21.70;37.20;;;;;;4995449;28;20030;-56
2023/03/29 10:53:24;;;;;;;13.43;10.90;;;21.70;37.30;;;;;;4996105;28;20084;-54
2023/03/29 10:55:56;;;;;;;14.27;11.45;;;21.80;37.40;;;;;;4989806;28;20035;-57
2023/03/29 10:58:45;;;;;;;13.82;11.35;;;21.70;37.40;;;;;;4983721;28;20046;-58
2023/03/29 11:01:32;;;;;;;13.73;11.27;;;21.70;37.40;;;;;;4981052;28;21143;-53
2023/03/29 11:04:17;;;;;;;14.57;12.30;;;21.80;37.50;;;;;;4989222;28;20041;-55
2023/03/29 11:06:58;;;;;;;13.23;11.32;;;21.70;37.50;;;;;;4993468;28;20417;-60
2023/03/29 11:09:42;;;;;;;12.85;11.00;;;21.70;37.60;;;;;;4993031;28;20038;-58
2023/03/29 11:12:19;;;;;;;15.23;12.60;;;21.80;37.70;;;;;;4995803;28;20019;-58
2023/03/29 11:14:55;;;;;;;15.07;12.15;;;21.80;37.90;;;;;;4995106;28;20104;-60
2023/03/29 11:17:51;;;;;;;16.25;12.52;;;21.80;37.90;;;;;;4988887;28;20034;-54
2023/03/29 11:20:30;;;;;;;12.75;11.23;;;21.80;38.00;;;;;;4992837;28;20034;-57
2023/03/29 11:23:26;;;;;;;14.10;11.80;;;21.80;38.10;;;;;;4987337;28;20060;-56
2023/03/29 11:26:04;;;;;;;12.20;10.75;;;21.80;38.10;;;;;;4986477;28;20057;-57
2023/03/29 11:28:47;;;;;;;15.68;12.05;;;21.80;38.10;;;;;;4992413;28;20018;-58
2023/03/29 11:31:27;;;;;;;14.52;11.85;;;21.80;38.10;;;;;;4993941;28;20041;-55
2023/03/29 11:34:14;;;;;;;13.02;11.18;;;21.80;38.20;;;;;;4989535;28;20034;-56
2023/03/29 11:37:08;;;;;;;14.98;12.30;;;21.80;38.80;;;;;;4991592;28;20042;-57
2023/03/29 11:39:53;;;;;;;15.55;12.27;;;21.80;38.20;;;;;;4968837;28;20123;-57
2023/03/29 11:42:28;;;;;;;15.25;12.73;;;21.80;38.20;;;;;;4994107;28;20501;-54
2023/03/29 11:44:57;;;;;;;15.35;12.32;;;21.80;38.30;;;;;;4991995;28;20034;-54
2023/03/29 11:47:27;;;;;;;14.32;12.40;;;21.80;38.30;;;;;;4992775;28;20109;-54
2023/03/29 11:49:56;;;;;;;14.70;11.70;;;21.80;38.40;;;;;;4987622;28;20129;-52
2023/03/29 11:52:43;;;;;;;14.80;12.35;;;21.80;38.50;;;;;;4992373;28;20030;-55
2023/03/29 11:55:29;;;;;;;14.82;12.07;;;21.80;38.50;;;;;;4990807;28;20030;-50
2023/03/29 11:58:05;;;;;;;14.65;11.73;;;21.80;38.60;;;;;;4990366;28;20497;-56
2023/03/29 12:00:43;;;;;;;16.17;11.60;;;21.80;38.60;;;;;;4988523;28;20035;-54
2023/03/29 12:03:12;;;;;;;14.20;11.50;;;21.80;38.70;;;;;;4990986;28;20359;-57
2023/03/29 12:05:47;;;;;;;13.93;11.25;;;21.80;38.70;;;;;;4986939;28;20077;-57
2023/03/29 12:08:19;;;;;;;14.38;11.95;;;21.80;38.80;;;;;;4988518;28;20038;-52
2023/03/29 12:10:56;;;;;;;12.82;10.93;;;21.80;38.80;;;;;;4988042;28;20035;-56
2023/03/29 12:13:31;;;;;;;13.13;10.88;;;21.80;38.80;;;;;;4988273;28;20050;-56
2023/03/29 12:16:13;;;;;;;12.32;11.00;;;21.80;38.90;;;;;;4985707;28;20065;-56
2023/03/29 12:18:48;;;;;;;12.82;10.02;;;21.80;38.90;;;;;;4985977;28;20072;-57
2023/03/29 12:21:22;;;;;;;13.02;10.30;;;21.80;38.90;;;;;;4987517;28;20039;-53
2023/03/29 12:23:50;;;;;;;15.88;10.85;;;21.80;39.00;;;;;;4988281;28;20038;-56
2023/03/29 12:26:53;;;;;;;12.88;10.43;;;21.80;39.60;;;;;;4986043;28;20101;-54
2023/03/29 12:29:32;;;;;;;12.35;10.45;;;21.80;39.00;;;;;;4987824;28;20037;-57
2023/03/29 12:32:21;;;;;;;12.25;10.95;;;21.80;39.10;;;;;;4988039;28;20030;-58
2023/03/29 12:36:06;;;;;;;13.15;11.50;;;21.80;39.20;;;;;;4991267;28;20019;-56
2023/03/29 12:38:51;;;;;;;13.88;11.98;;;21.80;39.20;;;;;;4950772;29;20053;-55
2023/03/29 12:41:37;;;;;;;14.57;12.20;;;21.80;39.30;;;;;;4936677;29;20530;-54
2023/03/29 12:44:23;;;;;;;15.45;11.95;;;21.80;39.30;;;;;;4989531;28;20814;-55
2023/03/29 12:46:58;;;;;;;14.70;12.00;;;21.80;39.40;;;;;;4989666;28;20050;-57
2023/03/29 12:49:34;;;;;;;13.63;11.55;;;21.80;39.50;;;;;;4993070;28;20088;-56
2023/03/29 12:52:05;;;;;;;12.40;11.07;;;21.80;39.50;;;;;;4991568;28;20034;-56
2023/03/29 12:54:32;;;;;;;14.55;11.25;;;21.80;39.60;;;;;;4992131;28;20100;-54
2023/03/29 12:57:00;;;;;;;14.63;11.80;;;21.80;39.60;;;;;;4993146;28;20058;-53
2023/03/29 12:59:44;;;;;;;15.38;12.88;;;21.80;39.70;;;;;;4988910;28;20108;-55
2023/03/29 13:02:16;;;;;;;13.75;11.98;;;21.80;39.70;;;;;;4991865;28;20378;-56
2023/03/29 13:04:42;;;;;;;13.35;11.38;;;21.80;39.70;;;;;;4993803;28;20034;-55
2023/03/29 13:07:26;;;;;;;16.35;11.40;;;21.80;39.80;;;;;;4996107;28;20034;-57
2023/03/29 13:10:30;;;;;;;13.17;11.13;;;21.80;39.90;;;;;;4995971;28;20033;-57
2023/03/29 13:12:56;;;;;;;13.75;11.20;;;21.80;40.10;;;;;;4982163;28;20302;-55
2023/03/29 13:15:24;;;;;;;12.30;10.95;;;21.80;40.00;;;;;;4991045;28;20073;-55
2023/03/29 13:17:56;;;;;;;12.27;10.98;;;21.80;40.10;;;;;;4989913;28;20038;-53
2023/03/29 13:20:36;;;;;;;12.20;10.88;;;21.80;40.00;;;;;;4990362;28;20115;-53
2023/03/29 13:23:11;;;;;;;12.68;10.77;;;21.80;40.00;;;;;;4988749;28;20427;-55